createdAt,value
2019-03-22T00:01:33.822Z,136.62
2019-03-22T00:04:01.866Z,136.68
2019-03-22T00:06:29.579Z,136.70
2019-03-22T00:08:57.152Z,137.55
2019-03-22T00:11:25.174Z,137.70
2019-03-22T00:13:52.950Z,137.72
2019-03-22T00:16:21.934Z,137.88
2019-03-22T00:18:49.611Z,137.82
2019-03-22T00:21:17.778Z,137.12
2019-03-22T00:23:45.464Z,137.37
2019-03-22T00:26:13.170Z,136.52
2019-03-22T00:28:41.334Z,137.25
2019-03-22T00:31:08.947Z,136.40
2019-03-22T00:33:36.545Z,137.45
2019-03-22T00:36:04.115Z,139.88
2019-03-22T00:38:31.658Z,138.50
2019-03-22T00:40:59.400Z,139.47
2019-03-22T00:43:27.165Z,139.97
2019-03-22T00:45:54.703Z,139.72
2019-03-22T00:48:24.841Z,138.82
2019-03-22T00:50:51.893Z,136.75
2019-03-22T00:53:19.490Z,136.55
2019-03-22T00:55:49.712Z,136.65
2019-03-22T00:58:17.301Z,137.18
2019-03-22T01:00:44.881Z,137.82
2019-03-22T01:03:12.575Z,137.22
2019-03-22T01:05:40.615Z,136.90
2019-03-22T01:08:08.189Z,137.40
2019-03-22T01:10:36.322Z,137.12
2019-03-22T01:13:03.854Z,138.30
2019-03-22T01:15:31.497Z,138.05
2019-03-22T01:17:59.098Z,137.37
2019-03-22T01:20:27.068Z,136.65
2019-03-22T01:22:54.747Z,136.55
2019-03-22T01:25:22.943Z,137.18
2019-03-22T01:27:50.637Z,137.22
2019-03-22T01:30:18.692Z,137.43
2019-03-22T01:32:46.928Z,136.90
2019-03-22T01:35:14.814Z,135.75
2019-03-22T01:37:42.583Z,136.35
2019-03-22T01:40:10.623Z,135.95
2019-03-22T01:42:38.177Z,136.18
2019-03-22T01:45:07.474Z,136.65
2019-03-22T01:47:35.509Z,135.75
2019-03-22T01:50:03.802Z,135.78
2019-03-22T01:52:31.489Z,135.80
2019-03-22T01:54:59.211Z,135.68
2019-03-22T01:57:26.784Z,136.60
2019-03-22T01:59:54.361Z,137.12
2019-03-22T02:02:22.693Z,136.00
2019-03-22T02:04:50.470Z,136.25
2019-03-22T02:07:18.100Z,137.88
2019-03-22T02:09:45.719Z,135.97
2019-03-22T02:12:13.419Z,135.48
2019-03-22T02:14:41.183Z,134.87
2019-03-22T02:17:09.200Z,135.50
2019-03-22T02:19:36.766Z,135.22
2019-03-22T02:22:04.538Z,134.43
2019-03-22T02:24:32.176Z,134.50
2019-03-22T02:27:00.021Z,135.95
2019-03-22T02:29:27.644Z,136.18
2019-03-22T02:31:55.890Z,135.97
2019-03-22T02:34:23.554Z,136.12
2019-03-22T02:36:51.198Z,136.35
2019-03-22T02:39:18.880Z,135.75
2019-03-22T02:41:46.590Z,136.00
2019-03-22T02:44:14.243Z,136.22
2019-03-22T02:46:42.362Z,136.50
2019-03-22T02:49:09.914Z,136.85
2019-03-22T02:51:38.895Z,136.15
2019-03-22T02:54:06.896Z,134.95
2019-03-22T02:56:34.550Z,135.85
2019-03-22T02:59:02.083Z,136.50
2019-03-22T03:01:30.313Z,136.82
2019-03-22T03:03:58.001Z,135.70
2019-03-22T03:06:25.549Z,135.37
2019-03-22T03:08:54.894Z,136.10
2019-03-22T03:11:22.606Z,135.78
2019-03-22T03:13:50.355Z,134.82
2019-03-22T03:16:17.947Z,137.35
2019-03-22T03:18:45.588Z,135.12
2019-03-22T03:21:13.163Z,136.68
2019-03-22T03:23:41.062Z,139.05
2019-03-22T03:26:08.689Z,135.80
2019-03-22T03:28:37.913Z,139.15
2019-03-22T03:31:06.678Z,136.05
2019-03-22T03:33:34.215Z,136.05
2019-03-22T03:36:02.115Z,136.18
2019-03-22T03:38:29.842Z,134.87
2019-03-22T03:40:57.388Z,136.20
2019-03-22T03:43:25.420Z,137.60
2019-03-22T03:45:53.026Z,137.12
2019-03-22T03:48:20.591Z,137.07
2019-03-22T03:50:48.712Z,137.37
2019-03-22T03:53:16.308Z,136.50
2019-03-22T03:55:44.009Z,136.70
2019-03-22T03:58:11.707Z,137.72
2019-03-22T04:00:40.476Z,136.82
2019-03-22T04:03:08.228Z,137.25
2019-03-22T04:05:36.494Z,136.97
2019-03-22T04:08:04.717Z,137.18
2019-03-22T04:10:32.308Z,134.97
2019-03-22T04:12:59.958Z,136.75
2019-03-22T04:15:27.903Z,137.00
2019-03-22T04:17:55.884Z,136.97
2019-03-22T04:20:23.432Z,137.77
2019-03-22T04:22:51.105Z,136.60
2019-03-22T04:25:18.672Z,136.75
2019-03-22T04:27:46.445Z,136.57
2019-03-22T04:30:14.599Z,135.52
2019-03-22T04:32:43.266Z,135.97
2019-03-22T04:35:11.011Z,135.68
2019-03-22T04:37:38.713Z,134.80
2019-03-22T04:40:27.986Z,137.18
2019-03-22T04:42:56.085Z,135.63
2019-03-22T04:45:25.624Z,136.62
2019-03-22T04:47:59.115Z,136.57
2019-03-22T04:50:27.959Z,137.28
2019-03-22T04:52:56.412Z,135.80
2019-03-22T04:55:24.821Z,135.90
2019-03-22T04:57:53.554Z,136.20
2019-03-22T05:00:22.131Z,136.92
2019-03-22T05:02:51.818Z,136.15
2019-03-22T05:05:19.869Z,136.25
2019-03-22T05:07:48.941Z,139.03
2019-03-22T05:10:17.183Z,137.28
2019-03-22T05:12:46.219Z,137.85
2019-03-22T05:15:17.884Z,138.52
2019-03-22T05:17:46.518Z,136.85
2019-03-22T05:20:16.051Z,136.20
2019-03-22T05:22:44.979Z,137.50
2019-03-22T05:25:13.643Z,136.25
2019-03-22T05:27:44.032Z,134.47
2019-03-22T05:30:36.146Z,136.28
2019-03-22T05:33:03.693Z,135.82
2019-03-22T05:35:31.342Z,134.67
2019-03-22T05:37:59.432Z,135.30
2019-03-22T05:40:26.993Z,135.63
2019-03-22T05:42:54.573Z,134.35
2019-03-22T05:45:22.250Z,134.37
2019-03-22T05:47:50.034Z,137.07
2019-03-22T05:50:17.655Z,135.78
2019-03-22T05:52:45.428Z,135.75
2019-03-22T05:55:13.463Z,137.12
2019-03-22T05:57:41.081Z,136.35
2019-03-22T06:00:08.936Z,137.37
2019-03-22T06:02:36.825Z,136.32
2019-03-22T06:05:05.170Z,136.12
2019-03-22T06:07:32.790Z,136.97
2019-03-22T06:10:00.439Z,138.20
2019-03-22T06:12:28.122Z,138.15
2019-03-22T06:14:55.729Z,140.00
2019-03-22T06:17:23.371Z,137.03
2019-03-22T06:19:51.120Z,138.65
2019-03-22T06:22:19.325Z,140.70
2019-03-22T06:24:47.321Z,139.65
2019-03-22T06:27:14.896Z,138.72
2019-03-22T06:29:53.749Z,138.30
2019-03-22T06:32:12.505Z,154.27
2019-03-22T06:34:40.066Z,141.03
2019-03-22T06:37:08.156Z,140.95
2019-03-22T06:39:35.958Z,142.87
2019-03-22T06:42:03.593Z,142.57
2019-03-22T06:44:31.736Z,141.75
2019-03-22T06:47:02.626Z,140.50
2019-03-22T06:49:31.513Z,142.32
2019-03-22T06:51:59.572Z,141.70
2019-03-22T06:54:32.128Z,141.05
2019-03-22T06:57:00.440Z,140.77
2019-03-22T06:59:28.626Z,140.65
2019-03-22T07:01:56.246Z,140.88
2019-03-22T07:04:23.859Z,140.90
2019-03-22T07:06:53.902Z,139.05
2019-03-22T07:09:22.185Z,143.70
2019-03-22T07:11:53.928Z,140.75
2019-03-22T07:14:26.649Z,141.47
2019-03-22T07:16:58.750Z,140.70
2019-03-22T07:19:34.591Z,142.37
2019-03-22T07:22:13.084Z,142.85
2019-03-22T07:24:40.646Z,142.03
2019-03-22T07:27:08.319Z,141.00
2019-03-22T07:29:35.986Z,140.97
2019-03-22T07:32:03.878Z,143.10
2019-03-22T07:34:31.777Z,142.37
2019-03-22T07:36:59.597Z,141.03
2019-03-22T07:39:27.236Z,141.55
2019-03-22T07:41:54.907Z,143.80
2019-03-22T07:44:22.533Z,141.97
2019-03-22T07:46:50.132Z,143.55
2019-03-22T07:49:18.553Z,144.50
2019-03-22T07:51:46.155Z,142.05
2019-03-22T07:54:13.735Z,142.57
2019-03-22T07:56:43.109Z,142.50
2019-03-22T07:59:10.789Z,142.90
2019-03-22T08:01:38.370Z,143.97
2019-03-22T08:04:07.852Z,144.02
2019-03-22T08:06:36.564Z,143.62
2019-03-22T08:09:07.005Z,143.25
2019-03-22T08:11:35.998Z,143.05
2019-03-22T08:14:03.602Z,142.82
2019-03-22T08:16:31.298Z,142.95
2019-03-22T08:19:05.447Z,143.13
2019-03-22T08:21:32.953Z,143.07
2019-03-22T08:24:01.074Z,147.15
2019-03-22T08:26:30.067Z,143.87
2019-03-22T08:28:57.841Z,145.50
2019-03-22T08:31:26.189Z,143.28
2019-03-22T08:33:53.838Z,144.82
2019-03-22T08:36:21.475Z,146.60
2019-03-22T08:38:53.217Z,144.55
2019-03-22T08:41:23.680Z,144.72
2019-03-22T08:43:58.074Z,145.20
2019-03-22T08:46:27.043Z,147.80
2019-03-22T08:48:55.080Z,147.40
2019-03-22T08:51:22.727Z,145.72
2019-03-22T08:53:55.628Z,145.80
2019-03-22T08:56:21.676Z,144.15
2019-03-22T08:58:53.035Z,144.30
2019-03-22T09:01:20.758Z,144.95
2019-03-22T09:04:02.044Z,147.87
2019-03-22T09:06:29.611Z,146.50
2019-03-22T09:08:57.266Z,146.02
2019-03-22T09:11:24.872Z,144.75
2019-03-22T09:13:53.896Z,145.53
2019-03-22T09:16:22.286Z,146.75
2019-03-22T09:18:50.214Z,146.13
2019-03-22T09:21:18.761Z,147.32
2019-03-22T09:23:48.385Z,147.17
2019-03-22T09:26:19.973Z,148.07
2019-03-22T09:28:50.051Z,157.93
2019-03-22T09:31:21.828Z,148.32
2019-03-22T09:33:54.915Z,149.12
2019-03-22T09:36:25.903Z,149.27
2019-03-22T09:38:54.382Z,148.55
2019-03-22T09:41:25.316Z,148.20
2019-03-22T09:43:52.929Z,147.50
2019-03-22T09:46:26.910Z,147.68
2019-03-22T09:48:54.461Z,147.10
2019-03-22T09:51:22.449Z,148.32
2019-03-22T09:53:50.061Z,157.17
2019-03-22T09:56:19.843Z,148.40
2019-03-22T09:58:50.195Z,149.32
2019-03-22T10:01:23.715Z,147.50
2019-03-22T10:03:47.356Z,148.82
2019-03-22T10:06:15.368Z,150.38
2019-03-22T10:08:45.495Z,150.90
2019-03-22T10:11:14.268Z,148.93
2019-03-22T10:13:44.469Z,153.70
2019-03-22T10:16:14.581Z,149.57
2019-03-22T10:18:42.266Z,150.57
2019-03-22T10:21:21.838Z,152.10
2019-03-22T10:23:45.156Z,150.60
2019-03-22T10:26:12.696Z,152.25
2019-03-22T10:28:40.470Z,148.70
2019-03-22T10:31:08.552Z,152.32
2019-03-22T10:33:36.103Z,150.20
2019-03-22T10:36:03.869Z,150.75
2019-03-22T10:38:32.332Z,151.15
2019-03-22T10:41:00.106Z,151.10
2019-03-22T10:43:27.889Z,152.43
2019-03-22T10:45:55.971Z,153.45
2019-03-22T10:48:23.601Z,152.38
2019-03-22T10:50:51.219Z,152.57
2019-03-22T10:53:18.936Z,154.85
2019-03-22T10:55:47.768Z,155.27
2019-03-22T10:59:07.754Z,153.25
2019-03-22T11:01:48.668Z,152.22
2019-03-22T11:06:36.235Z,151.40
2019-03-22T11:09:06.236Z,151.53
2019-03-22T11:11:33.946Z,154.20
2019-03-22T11:14:03.640Z,152.70
2019-03-22T11:16:31.357Z,152.80
2019-03-22T11:19:01.226Z,154.78
2019-03-22T11:21:32.664Z,156.52
2019-03-22T11:24:00.626Z,157.55
2019-03-22T11:26:35.541Z,155.25
2019-03-22T11:29:07.799Z,156.90
2019-03-22T11:31:40.067Z,155.50
2019-03-22T11:34:18.121Z,158.72
2019-03-22T11:37:02.999Z,157.93
2019-03-22T11:42:51.536Z,156.37
2019-03-22T11:45:24.611Z,155.75
2019-03-22T11:47:54.190Z,152.38
2019-03-22T11:50:23.462Z,153.18
2019-03-22T11:52:52.103Z,155.05
2019-03-22T11:55:19.706Z,156.45
2019-03-22T11:57:48.052Z,154.97
2019-03-22T12:00:25.236Z,154.25
2019-03-22T12:03:17.008Z,154.20
2019-03-22T12:06:03.235Z,155.45
2019-03-22T12:08:35.726Z,153.78
2019-03-22T12:11:03.305Z,152.02
2019-03-22T12:13:30.946Z,150.93
2019-03-22T12:16:01.089Z,154.95
2019-03-22T12:18:30.225Z,152.72
2019-03-22T12:21:11.837Z,151.78
2019-03-22T12:23:39.384Z,153.10
2019-03-22T12:26:07.043Z,153.12
2019-03-22T12:28:34.760Z,151.30
2019-03-22T12:31:02.363Z,152.65
2019-03-22T12:33:30.181Z,151.45
2019-03-22T12:35:58.176Z,152.15
2019-03-22T12:38:25.723Z,152.53
2019-03-22T12:40:53.544Z,152.80
2019-03-22T12:43:23.002Z,156.10
2019-03-22T12:45:51.418Z,150.93
2019-03-22T12:48:19.055Z,152.07
2019-03-22T12:50:46.664Z,151.85
2019-03-22T12:53:14.680Z,152.93
2019-03-22T12:55:42.259Z,151.47
2019-03-22T12:58:11.156Z,151.70
2019-03-22T13:00:38.852Z,150.70
2019-03-22T13:03:06.431Z,151.20
2019-03-22T13:05:34.043Z,150.32
2019-03-22T13:08:15.160Z,149.95
2019-03-22T13:11:10.514Z,148.17
2019-03-22T13:13:39.522Z,149.60
2019-03-22T13:16:07.150Z,149.27
2019-03-22T13:18:34.956Z,149.45
2019-03-22T13:21:04.294Z,149.75
2019-03-22T13:23:32.056Z,149.50
2019-03-22T13:25:59.771Z,145.85
2019-03-22T13:28:27.368Z,147.43
2019-03-22T13:30:55.404Z,147.25
2019-03-22T13:33:23.589Z,146.45
2019-03-22T13:35:51.190Z,148.22
2019-03-22T13:38:19.196Z,148.70
2019-03-22T13:40:51.895Z,147.35
2019-03-22T13:43:19.680Z,147.20
2019-03-22T13:45:48.664Z,147.50
2019-03-22T13:48:18.851Z,149.70
2019-03-22T13:50:46.589Z,146.65
2019-03-22T13:53:14.577Z,146.20
2019-03-22T13:55:42.692Z,148.22
2019-03-22T13:58:10.582Z,148.25
2019-03-22T14:00:38.198Z,147.98
2019-03-22T14:03:05.895Z,148.43
2019-03-22T14:05:33.475Z,148.62
2019-03-22T14:08:01.301Z,147.02
2019-03-22T14:10:33.297Z,148.15
2019-03-22T14:13:00.956Z,149.90
2019-03-22T14:15:28.753Z,147.32
2019-03-22T14:17:56.970Z,146.47
2019-03-22T14:20:25.064Z,147.25
2019-03-22T14:22:53.955Z,150.25
2019-03-22T14:25:23.809Z,147.72
2019-03-22T14:27:52.550Z,147.43
2019-03-22T14:30:22.037Z,147.95
2019-03-22T14:32:49.659Z,150.30
2019-03-22T14:35:17.264Z,151.42
2019-03-22T14:37:55.097Z,149.38
2019-03-22T14:40:45.951Z,149.68
2019-03-22T14:43:15.791Z,148.62
2019-03-22T14:45:43.454Z,150.70
2019-03-22T14:48:11.227Z,151.85
2019-03-22T14:50:39.405Z,150.47
2019-03-22T14:53:07.353Z,151.15
2019-03-22T14:55:34.930Z,151.02
2019-03-22T14:58:02.576Z,150.45
2019-03-22T15:00:30.184Z,151.93
2019-03-22T15:03:05.367Z,154.70
2019-03-22T15:05:47.314Z,151.05
2019-03-22T15:12:23.106Z,152.20
2019-03-22T15:15:14.517Z,151.15
2019-03-22T15:18:09.059Z,154.27
2019-03-22T15:20:59.266Z,155.32
2019-03-22T15:23:45.323Z,154.87
2019-03-22T15:26:45.544Z,152.20
2019-03-22T15:29:31.183Z,154.07
2019-03-22T15:32:21.022Z,157.18
2019-03-22T15:35:08.270Z,154.00
2019-03-22T15:38:11.008Z,152.50
2019-03-22T15:40:42.110Z,153.27
2019-03-22T15:43:10.201Z,153.85
2019-03-22T15:45:37.785Z,153.42
2019-03-22T15:48:05.365Z,152.93
2019-03-22T15:50:32.998Z,153.42
2019-03-22T15:53:01.366Z,155.32
2019-03-22T15:55:29.123Z,154.12
2019-03-22T15:57:56.753Z,154.95
2019-03-22T16:00:24.778Z,153.82
2019-03-22T16:02:52.920Z,152.02
2019-03-22T16:05:20.519Z,153.20
2019-03-22T16:07:48.227Z,154.00
2019-03-22T16:10:16.023Z,155.32
2019-03-22T16:12:43.940Z,153.87
2019-03-22T16:15:12.190Z,155.22
2019-03-22T16:17:39.773Z,153.02
2019-03-22T16:20:08.636Z,152.15
2019-03-22T16:22:36.317Z,152.72
2019-03-22T16:25:07.182Z,152.70
2019-03-22T16:27:35.365Z,151.25
2019-03-22T16:30:04.913Z,152.27
2019-03-22T16:32:32.565Z,152.35
2019-03-22T16:35:00.345Z,154.47
2019-03-22T16:37:28.105Z,153.57
2019-03-22T16:39:56.200Z,152.05
2019-03-22T16:42:23.843Z,153.42
2019-03-22T16:44:51.463Z,154.05
2019-03-22T16:47:19.086Z,152.97
2019-03-22T16:50:00.995Z,152.85
2019-03-22T16:52:32.874Z,151.27
2019-03-22T16:55:03.931Z,151.02
2019-03-22T16:57:34.804Z,151.55
2019-03-22T17:00:05.551Z,151.05
2019-03-22T17:02:41.823Z,151.85
2019-03-22T17:05:10.355Z,155.90
2019-03-22T17:07:38.049Z,154.27
2019-03-22T17:10:07.817Z,148.90
2019-03-22T17:12:36.887Z,152.57
2019-03-22T17:15:05.216Z,150.87
2019-03-22T17:17:34.934Z,150.90
2019-03-22T17:20:02.549Z,150.65
2019-03-22T17:22:30.199Z,151.45
2019-03-22T17:24:58.388Z,150.62
2019-03-22T17:27:26.912Z,149.93
2019-03-22T17:29:54.504Z,150.03
2019-03-22T17:32:23.038Z,150.53
2019-03-22T17:34:50.816Z,150.85
2019-03-22T17:37:18.520Z,151.63
2019-03-22T17:39:46.445Z,152.80
2019-03-22T17:42:16.423Z,149.55
2019-03-22T17:44:45.722Z,152.45
2019-03-22T17:47:13.520Z,150.47
2019-03-22T17:49:48.088Z,150.22
2019-03-22T17:52:14.517Z,149.97
2019-03-22T17:54:44.886Z,149.50
2019-03-22T17:57:18.804Z,149.02
2019-03-22T17:59:46.837Z,150.03
2019-03-22T18:02:14.548Z,150.07
2019-03-22T18:04:42.286Z,152.22
2019-03-22T18:07:10.470Z,152.78
2019-03-22T18:09:38.474Z,149.35
2019-03-22T18:12:07.145Z,150.35
2019-03-22T18:14:37.585Z,150.55
2019-03-22T18:17:05.249Z,150.87
2019-03-22T18:19:32.952Z,150.97
2019-03-22T18:22:03.708Z,148.32
2019-03-22T18:24:31.415Z,148.95
2019-03-22T18:26:59.501Z,149.68
2019-03-22T18:29:28.297Z,148.10
2019-03-22T18:31:55.853Z,149.62
2019-03-22T18:34:23.492Z,150.03
2019-03-22T18:36:51.295Z,149.05
2019-03-22T18:39:18.989Z,147.70
2019-03-22T18:41:46.970Z,149.70
2019-03-22T18:44:14.602Z,148.38
2019-03-22T18:46:42.389Z,149.32
2019-03-22T18:49:11.164Z,149.55
2019-03-22T18:51:39.711Z,149.27
2019-03-22T18:54:09.247Z,150.10
2019-03-22T18:56:36.874Z,162.30
2019-03-22T18:59:04.567Z,158.12
2019-03-22T19:01:32.195Z,155.07
2019-03-22T19:03:59.970Z,152.70
2019-03-22T19:06:28.111Z,154.65
2019-03-22T19:08:57.092Z,150.90
2019-03-22T19:11:24.676Z,150.03
2019-03-22T19:13:53.506Z,150.68
2019-03-22T19:16:21.095Z,151.07
2019-03-22T19:18:48.795Z,151.63
2019-03-22T19:21:16.415Z,156.60
2019-03-22T19:23:44.114Z,150.95
2019-03-22T19:26:12.022Z,150.65
2019-03-22T19:28:41.410Z,149.10
2019-03-22T19:31:09.117Z,148.75
2019-03-22T19:33:37.044Z,149.12
2019-03-22T19:36:04.886Z,151.68
2019-03-22T19:38:32.874Z,148.32
2019-03-22T19:41:00.522Z,146.98
2019-03-22T19:43:28.156Z,148.55
2019-03-22T19:45:56.104Z,148.05
2019-03-22T19:48:23.757Z,145.85
2019-03-22T19:50:51.440Z,147.30
2019-03-22T19:53:19.650Z,146.07
2019-03-22T19:55:48.606Z,148.22
2019-03-22T19:58:17.325Z,147.75
2019-03-22T20:00:46.344Z,146.25
2019-03-22T20:03:14.109Z,147.35
2019-03-22T20:05:41.847Z,146.18
2019-03-22T20:08:12.899Z,146.10
2019-03-22T20:10:39.295Z,145.50
2019-03-22T20:13:06.922Z,147.35
2019-03-22T20:15:35.107Z,145.12
2019-03-22T20:18:02.710Z,144.57
2019-03-22T20:20:30.318Z,145.30
2019-03-22T20:22:59.947Z,146.10
2019-03-22T20:25:27.845Z,146.00
2019-03-22T20:27:56.950Z,144.13
2019-03-22T20:30:25.104Z,146.82
2019-03-22T20:32:53.013Z,148.68
2019-03-22T20:35:20.622Z,145.62
2019-03-22T20:37:48.655Z,146.35
2019-03-22T20:40:16.693Z,145.87
2019-03-22T20:42:44.258Z,145.45
2019-03-22T20:45:23.325Z,145.35
2019-03-22T20:47:41.815Z,145.77
2019-03-22T20:50:11.565Z,145.07
2019-03-22T20:52:39.260Z,144.05
2019-03-22T20:55:08.017Z,144.77
2019-03-22T20:57:36.008Z,142.70
2019-03-22T21:00:04.802Z,144.65
2019-03-22T21:02:32.587Z,145.90
2019-03-22T21:05:00.682Z,144.10
2019-03-22T21:07:28.481Z,143.22
2019-03-22T21:09:56.135Z,143.40
2019-03-22T21:12:23.717Z,144.15
2019-03-22T21:14:51.874Z,144.20
2019-03-22T21:17:19.675Z,145.77
2019-03-22T21:19:47.492Z,143.25
2019-03-22T21:22:16.575Z,141.73
2019-03-22T21:24:44.218Z,145.00
2019-03-22T21:27:15.838Z,143.20
2019-03-22T21:29:44.361Z,142.53
2019-03-22T21:32:11.042Z,141.47
2019-03-22T21:34:39.148Z,140.43
2019-03-22T21:37:07.031Z,139.25
2019-03-22T21:39:34.746Z,140.65
2019-03-22T21:42:02.455Z,139.07
2019-03-22T21:44:30.366Z,139.70
2019-03-22T21:46:58.116Z,140.45
2019-03-22T21:49:26.340Z,140.30
2019-03-22T21:51:53.925Z,140.92
2019-03-22T21:54:23.423Z,139.32
2019-03-22T21:56:51.233Z,139.62
2019-03-22T21:59:18.854Z,140.05
2019-03-22T22:01:46.666Z,139.03
2019-03-22T22:04:14.663Z,141.03
2019-03-22T22:06:42.272Z,138.80
2019-03-22T22:09:10.043Z,139.97
2019-03-22T22:11:37.741Z,139.20
2019-03-22T22:14:05.393Z,141.28
2019-03-22T22:16:33.186Z,141.75
2019-03-22T22:19:02.173Z,141.10
2019-03-22T22:21:30.858Z,138.88
2019-03-22T22:23:58.579Z,143.17
2019-03-22T22:26:26.241Z,147.13
2019-03-22T22:28:53.924Z,146.45
2019-03-22T22:31:22.175Z,142.55
2019-03-22T22:33:49.726Z,142.40
2019-03-22T22:36:17.532Z,141.68
2019-03-22T22:38:45.187Z,141.80
2019-03-22T22:41:12.855Z,142.32
2019-03-22T22:43:41.575Z,141.37
2019-03-22T22:46:09.707Z,138.85
2019-03-22T22:48:37.768Z,140.90
2019-03-22T22:51:05.533Z,139.07
2019-03-22T22:53:33.445Z,140.65
2019-03-22T22:56:01.550Z,140.52
2019-03-22T22:58:29.360Z,139.47
2019-03-22T23:00:57.002Z,139.97
2019-03-22T23:03:26.595Z,140.25
2019-03-22T23:05:54.305Z,139.72
2019-03-22T23:08:22.360Z,138.72
2019-03-22T23:10:49.999Z,138.68
2019-03-22T23:13:21.507Z,139.90
2019-03-22T23:15:49.260Z,138.68
2019-03-22T23:18:17.040Z,140.32
2019-03-22T23:20:44.631Z,138.90
2019-03-22T23:23:12.955Z,142.60
2019-03-22T23:25:40.626Z,138.50
2019-03-22T23:28:08.390Z,139.10
2019-03-22T23:30:36.201Z,138.37
2019-03-22T23:33:03.856Z,137.52
2019-03-22T23:35:31.563Z,139.68
2019-03-22T23:37:59.759Z,138.03
2019-03-22T23:40:27.539Z,139.45
2019-03-22T23:42:55.655Z,137.92
2019-03-22T23:45:23.902Z,138.50
2019-03-22T23:47:53.015Z,140.05
2019-03-22T23:50:20.905Z,137.10
2019-03-22T23:52:48.973Z,137.80
2019-03-22T23:55:16.775Z,139.77
2019-03-22T23:57:44.565Z,140.00
